sensor_id;sensor_type;location;lat;lon;timestamp;pressure;altitude;pressure_sealevel;temperature;humidity
141;BME280;65;48.778;9.160;2023-01-29T00:01:55;99661.81;;;-0.10;92.67
141;BME280;65;48.778;9.160;2023-01-29T00:04:21;99666.16;;;-0.11;92.06
141;BME280;65;48.778;9.160;2023-01-29T00:06:47;99667.88;;;-0.14;92.29
141;BME280;65;48.778;9.160;2023-01-29T00:09:12;99670.47;;;-0.17;92.64
141;BME280;65;48.778;9.160;2023-01-29T00:11:38;99667.88;;;-0.14;93.06
141;BME280;65;48.778;9.160;2023-01-29T00:14:05;99668.75;;;-0.14;92.22
141;BME280;65;48.778;9.160;2023-01-29T00:16:30;99676.53;;;-0.15;93.09
141;BME280;65;48.778;9.160;2023-01-29T00:18:55;99672.19;;;-0.16;92.45
141;BME280;65;48.778;9.160;2023-01-29T00:21:21;99666.16;;;-0.14;93.33
141;BME280;65;48.778;9.160;2023-01-29T00:23:47;99668.75;;;-0.14;92.85
141;BME280;65;48.778;9.160;2023-01-29T00:26:13;99660.94;;;-0.15;93.75
141;BME280;65;48.778;9.160;2023-01-29T00:28:39;99675.66;;;-0.14;92.64
141;BME280;65;48.778;9.160;2023-01-29T00:31:09;99679.13;;;-0.12;92.91
141;BME280;65;48.778;9.160;2023-01-29T00:33:35;99673.94;;;-0.14;93.97
141;BME280;65;48.778;9.160;2023-01-29T00:36:03;99673.94;;;-0.12;93.53
141;BME280;65;48.778;9.160;2023-01-29T00:38:29;99667.88;;;-0.16;94.22
141;BME280;65;48.778;9.160;2023-01-29T00:40:54;99662.69;;;-0.16;93.68
141;BME280;65;48.778;9.160;2023-01-29T00:43:38;99661.78;;;-0.19;93.23
141;BME280;65;48.778;9.160;2023-01-29T00:46:22;99654.84;;;-0.26;92.98
141;BME280;65;48.778;9.160;2023-01-29T00:48:47;99666.97;;;-0.24;94.03
141;BME280;65;48.778;9.160;2023-01-29T00:51:13;99660.94;;;-0.18;93.25
141;BME280;65;48.778;9.160;2023-01-29T00:53:38;99665.25;;;-0.17;93.17
141;BME280;65;48.778;9.160;2023-01-29T00:56:04;99665.28;;;-0.14;93.06
141;BME280;65;48.778;9.160;2023-01-29T00:58:29;99655.75;;;-0.14;91.88
141;BME280;65;48.778;9.160;2023-01-29T01:01:07;99667.88;;;-0.14;91.83
141;BME280;65;48.778;9.160;2023-01-29T01:03:34;99665.25;;;-0.23;92.37
141;BME280;65;48.778;9.160;2023-01-29T01:06:25;99664.38;;;-0.21;92.21
141;BME280;65;48.778;9.160;2023-01-29T01:09:09;99659.16;;;-0.27;92.36
141;BME280;65;48.778;9.160;2023-01-29T01:11:56;99661.78;;;-0.25;92.01
141;BME280;65;48.778;9.160;2023-01-29T01:14:22;99656.59;;;-0.22;91.93
141;BME280;65;48.778;9.160;2023-01-29T01:16:48;99667.00;;;-0.16;91.76
141;BME280;65;48.778;9.160;2023-01-29T01:19:14;99671.34;;;-0.17;91.70
141;BME280;65;48.778;9.160;2023-01-29T01:21:40;99669.59;;;-0.18;92.56
141;BME280;65;48.778;9.160;2023-01-29T01:24:10;99665.22;;;-0.28;92.92
141;BME280;65;48.778;9.160;2023-01-29T01:26:35;99663.50;;;-0.24;92.39
141;BME280;65;48.778;9.160;2023-01-29T01:29:00;99660.94;;;-0.21;92.24
141;BME280;65;48.778;9.160;2023-01-29T01:31:26;99649.66;;;-0.23;92.62
141;BME280;65;48.778;9.160;2023-01-29T01:33:51;99655.72;;;-0.24;92.98
141;BME280;65;48.778;9.160;2023-01-29T01:36:18;99650.53;;;-0.23;91.70
141;BME280;65;48.778;9.160;2023-01-29T01:38:44;99652.25;;;-0.22;91.98
141;BME280;65;48.778;9.160;2023-01-29T01:41:15;99660.91;;;-0.23;92.50
141;BME280;65;48.778;9.160;2023-01-29T01:43:48;99662.63;;;-0.28;92.89
141;BME280;65;48.778;9.160;2023-01-29T01:46:15;99652.22;;;-0.31;92.29
141;BME280;65;48.778;9.160;2023-01-29T01:48:41;99649.63;;;-0.36;92.28
141;BME280;65;48.778;9.160;2023-01-29T01:51:06;99658.28;;;-0.30;92.19
141;BME280;65;48.778;9.160;2023-01-29T01:53:42;99650.47;;;-0.37;91.31
141;BME280;65;48.778;9.160;2023-01-29T01:56:13;99647.88;;;-0.35;91.84
141;BME280;65;48.778;9.160;2023-01-29T01:58:43;99647.88;;;-0.38;92.36
141;BME280;65;48.778;9.160;2023-01-29T02:01:11;99650.50;;;-0.32;91.22
141;BME280;65;48.778;9.160;2023-01-29T02:03:44;99651.34;;;-0.35;91.15
141;BME280;65;48.778;9.160;2023-01-29T02:06:30;99648.75;;;-0.36;91.71
141;BME280;65;48.778;9.160;2023-01-29T02:09:22;99654.81;;;-0.36;91.88
141;BME280;65;48.778;9.160;2023-01-29T02:12:03;99651.34;;;-0.35;92.01
141;BME280;65;48.778;9.160;2023-01-29T02:14:29;99659.16;;;-0.35;92.06
141;BME280;65;48.778;9.160;2023-01-29T02:16:58;99661.72;;;-0.38;91.76
141;BME280;65;48.778;9.160;2023-01-29T02:36:49;99669.47;;;-0.53;92.09
141;BME280;65;48.778;9.160;2023-01-29T02:42:10;99653.91;;;-0.44;91.02
141;BME280;65;48.778;9.160;2023-01-29T02:44:41;99656.53;;;-0.42;90.31
141;BME280;65;48.778;9.160;2023-01-29T02:50:13;99654.72;;;-0.57;90.80
141;BME280;65;48.778;9.160;2023-01-29T02:53:12;99657.34;;;-0.54;91.70
141;BME280;65;48.778;9.160;2023-01-29T02:55:47;99663.41;;;-0.50;91.43
141;BME280;65;48.778;9.160;2023-01-29T02:58:25;99654.75;;;-0.54;90.84
141;BME280;65;48.778;9.160;2023-01-29T03:00:55;99652.94;;;-0.61;91.50
141;BME280;65;48.778;9.160;2023-01-29T03:03:38;99646.88;;;-0.61;91.45
141;BME280;65;48.778;9.160;2023-01-29T03:09:00;99647.75;;;-0.58;91.65
141;BME280;65;48.778;9.160;2023-01-29T03:11:31;99657.31;;;-0.55;91.75
141;BME280;65;48.778;9.160;2023-01-29T03:14:03;99655.53;;;-0.59;92.15
141;BME280;65;48.778;9.160;2023-01-29T03:16:50;99662.47;;;-0.58;92.53
141;BME280;65;48.778;9.160;2023-01-29T03:19:20;99655.47;;;-0.72;93.99
141;BME280;65;48.778;9.160;2023-01-29T03:21:49;99646.03;;;-0.59;91.96
141;BME280;65;48.778;9.160;2023-01-29T03:24:43;99650.41;;;-0.55;92.32
141;BME280;65;48.778;9.160;2023-01-29T03:27:33;99650.34;;;-0.61;93.64
141;BME280;65;48.778;9.160;2023-01-29T03:30:24;99652.03;;;-0.68;92.80
141;BME280;65;48.778;9.160;2023-01-29T03:33:09;99650.34;;;-0.61;93.03
141;BME280;65;48.778;9.160;2023-01-29T03:35:55;99657.28;;;-0.58;91.54
141;BME280;65;48.778;9.160;2023-01-29T03:38:24;99659.94;;;-0.55;92.59
141;BME280;65;48.778;9.160;2023-01-29T03:41:31;99648.63;;;-0.60;93.15
141;BME280;65;48.778;9.160;2023-01-29T03:46:53;99647.81;;;-0.56;92.50
141;BME280;65;48.778;9.160;2023-01-29T03:49:48;99651.22;;;-0.60;91.98
141;BME280;65;48.778;9.160;2023-01-29T03:52:27;99641.66;;;-0.66;91.82
141;BME280;65;48.778;9.160;2023-01-29T03:55:21;99644.28;;;-0.61;91.31
141;BME280;65;48.778;9.160;2023-01-29T04:03:07;99645.97;;;-0.68;91.99
141;BME280;65;48.778;9.160;2023-01-29T04:05:41;99645.97;;;-0.68;91.74
141;BME280;65;48.778;9.160;2023-01-29T04:08:16;99647.72;;;-0.66;90.91
141;BME280;65;48.778;9.160;2023-01-29T04:10:46;99658.94;;;-0.71;92.01
141;BME280;65;48.778;9.160;2023-01-29T04:13:14;99653.78;;;-0.68;91.57
141;BME280;65;48.778;9.160;2023-01-29T04:15:46;99652.91;;;-0.70;91.64
141;BME280;65;48.778;9.160;2023-01-29T04:18:14;99657.25;;;-0.63;91.39
141;BME280;65;48.778;9.160;2023-01-29T04:20:39;99658.13;;;-0.63;91.11
141;BME280;65;48.778;9.160;2023-01-29T04:23:06;99651.22;;;-0.62;91.15
141;BME280;65;48.778;9.160;2023-01-29T04:25:43;99650.28;;;-0.73;91.02
141;BME280;65;48.778;9.160;2023-01-29T04:28:24;99651.16;;;-0.74;90.82
141;BME280;65;48.778;9.160;2023-01-29T04:31:02;99664.13;;;-0.71;91.81
141;BME280;65;48.778;9.160;2023-01-29T04:36:29;99663.25;;;-0.75;91.17
141;BME280;65;48.778;9.160;2023-01-29T04:52:37;99654.50;;;-0.90;93.84
141;BME280;65;48.778;9.160;2023-01-29T04:55:29;99659.69;;;-0.90;93.77
141;BME280;65;48.778;9.160;2023-01-29T04:58:08;99653.66;;;-0.86;93.37
141;BME280;65;48.778;9.160;2023-01-29T05:00:39;99650.19;;;-0.88;93.11
141;BME280;65;48.778;9.160;2023-01-29T05:03:06;99655.38;;;-0.91;92.35
141;BME280;65;48.778;9.160;2023-01-29T05:05:34;99662.31;;;-0.86;92.83
141;BME280;65;48.778;9.160;2023-01-29T05:08:01;99659.75;;;-0.84;92.79
141;BME280;65;48.778;9.160;2023-01-29T05:10:27;99660.59;;;-0.84;92.53
141;BME280;65;48.778;9.160;2023-01-29T05:12:58;99652.88;;;-0.76;92.63
141;BME280;65;48.778;9.160;2023-01-29T05:15:29;99661.47;;;-0.83;92.85
141;BME280;65;48.778;9.160;2023-01-29T05:17:57;99662.31;;;-0.87;92.11
141;BME280;65;48.778;9.160;2023-01-29T05:20:30;99653.66;;;-0.88;91.69
141;BME280;65;48.778;9.160;2023-01-29T05:22:56;99650.19;;;-0.93;92.03
141;BME280;65;48.778;9.160;2023-01-29T05:25:28;99657.06;;;-1.00;92.04
141;BME280;65;48.778;9.160;2023-01-29T05:27:54;99663.09;;;-1.04;91.47
141;BME280;65;48.778;9.160;2023-01-29T05:30:37;99667.44;;;-1.00;92.41
141;BME280;65;48.778;9.160;2023-01-29T05:33:08;99670.91;;;-0.94;92.41
141;BME280;65;48.778;9.160;2023-01-29T05:35:35;99671.78;;;-0.96;92.08
141;BME280;65;48.778;9.160;2023-01-29T05:38:01;99675.25;;;-0.93;92.51
141;BME280;65;48.778;9.160;2023-01-29T05:40:26;99667.53;;;-0.83;91.23
141;BME280;65;48.778;9.160;2023-01-29T05:42:51;99657.13;;;-0.86;91.58
141;BME280;65;48.778;9.160;2023-01-29T05:45:17;99662.31;;;-0.90;90.98
141;BME280;65;48.778;9.160;2023-01-29T05:47:43;99661.44;;;-0.89;92.13
141;BME280;65;48.778;9.160;2023-01-29T05:50:09;99662.28;;;-0.93;91.50
141;BME280;65;48.778;9.160;2023-01-29T05:52:34;99644.13;;;-0.93;92.09
141;BME280;65;48.778;9.160;2023-01-29T05:54:59;99623.38;;;-0.89;90.26
141;BME280;65;48.778;9.160;2023-01-29T05:57:25;99617.34;;;-0.88;91.04
141;BME280;65;48.778;9.160;2023-01-29T05:59:50;99618.16;;;-0.95;90.50
141;BME280;65;48.778;9.160;2023-01-29T06:02:16;99610.34;;;-1.01;92.22
141;BME280;65;48.778;9.160;2023-01-29T06:04:41;99613.78;;;-1.04;92.24
141;BME280;65;48.778;9.160;2023-01-29T06:07:06;99624.13;;;-1.08;93.68
141;BME280;65;48.778;9.160;2023-01-29T06:09:32;99632.81;;;-1.06;93.63
141;BME280;65;48.778;9.160;2023-01-29T06:11:57;99627.63;;;-1.06;93.93
141;BME280;65;48.778;9.160;2023-01-29T06:14:22;99635.44;;;-1.00;93.02
141;BME280;65;48.778;9.160;2023-01-29T06:16:48;99628.50;;;-1.00;92.21
141;BME280;65;48.778;9.160;2023-01-29T06:19:13;99635.47;;;-0.92;92.02
141;BME280;65;48.778;9.160;2023-01-29T06:21:38;99641.50;;;-0.97;92.39
141;BME280;65;48.778;9.160;2023-01-29T06:24:04;99636.34;;;-0.90;91.47
141;BME280;65;48.778;9.160;2023-01-29T06:26:29;99635.50;;;-0.89;92.04
141;BME280;65;48.778;9.160;2023-01-29T06:28:55;99643.28;;;-0.86;92.26
141;BME280;65;48.778;9.160;2023-01-29T06:31:20;99644.13;;;-0.93;93.02
141;BME280;65;48.778;9.160;2023-01-29T06:33:46;99642.38;;;-0.94;92.71
141;BME280;65;48.778;9.160;2023-01-29T06:36:11;99640.63;;;-0.99;91.85
141;BME280;65;48.778;9.160;2023-01-29T06:38:36;99650.09;;;-1.05;92.42
141;BME280;65;48.778;9.160;2023-01-29T06:41:10;99648.41;;;-1.00;92.67
141;BME280;65;48.778;9.160;2023-01-29T06:43:36;99651.03;;;-0.96;93.04
141;BME280;65;48.778;9.160;2023-01-29T06:46:02;99642.41;;;-0.91;92.37
141;BME280;65;48.778;9.160;2023-01-29T06:48:27;99649.28;;;-0.98;91.93
141;BME280;65;48.778;9.160;2023-01-29T06:50:53;99648.41;;;-0.99;92.17
141;BME280;65;48.778;9.160;2023-01-29T06:53:19;99650.16;;;-0.98;91.84
141;BME280;65;48.778;9.160;2023-01-29T06:55:51;99645.81;;;-0.99;92.65
141;BME280;65;48.778;9.160;2023-01-29T06:58:19;99653.63;;;-0.96;91.57
141;BME280;65;48.778;9.160;2023-01-29T07:01:08;99658.81;;;-0.94;91.26
141;BME280;65;48.778;9.160;2023-01-29T07:03:48;99657.09;;;-0.95;91.19
141;BME280;65;48.778;9.160;2023-01-29T07:06:14;99668.31;;;-0.94;91.76
141;BME280;65;48.778;9.160;2023-01-29T07:08:46;99663.13;;;-0.94;91.45
141;BME280;65;48.778;9.160;2023-01-29T07:11:11;99660.56;;;-0.93;93.33
141;BME280;65;48.778;9.160;2023-01-29T07:13:37;99657.97;;;-0.93;93.08
141;BME280;65;48.778;9.160;2023-01-29T07:16:03;99663.13;;;-0.98;92.51
141;BME280;65;48.778;9.160;2023-01-29T07:18:29;99655.34;;;-0.96;91.72
141;BME280;65;48.778;9.160;2023-01-29T07:20:55;99660.53;;;-0.98;93.48
141;BME280;65;48.778;9.160;2023-01-29T07:23:22;99668.34;;;-0.90;91.74
141;BME280;65;48.778;9.160;2023-01-29T07:25:47;99666.66;;;-0.86;90.92
141;BME280;65;48.778;9.160;2023-01-29T07:28:17;99658.88;;;-0.85;91.07
141;BME280;65;48.778;9.160;2023-01-29T07:30:42;99667.53;;;-0.83;91.55
141;BME280;65;48.778;9.160;2023-01-29T07:33:08;99671.88;;;-0.77;91.11
141;BME280;65;48.778;9.160;2023-01-29T07:35:39;99677.13;;;-0.68;90.88
141;BME280;65;48.778;9.160;2023-01-29T07:38:05;99678.88;;;-0.64;90.41
141;BME280;65;48.778;9.160;2023-01-29T07:40:31;99674.53;;;-0.70;89.87
141;BME280;65;48.778;9.160;2023-01-29T07:43:01;99689.28;;;-0.63;91.15
141;BME280;65;48.778;9.160;2023-01-29T07:45:28;99687.50;;;-0.68;90.61
141;BME280;65;48.778;9.160;2023-01-29T07:47:54;99681.50;;;-0.59;91.19
141;BME280;65;48.778;9.160;2023-01-29T07:50:21;99686.78;;;-0.50;89.64
141;BME280;65;48.778;9.160;2023-01-29T07:52:46;99685.06;;;-0.44;89.93
141;BME280;65;48.778;9.160;2023-01-29T07:55:15;99698.91;;;-0.48;89.63
141;BME280;65;48.778;9.160;2023-01-29T07:57:41;99691.00;;;-0.66;90.50
141;BME280;65;48.778;9.160;2023-01-29T08:00:07;99701.47;;;-0.52;90.52
141;BME280;65;48.778;9.160;2023-01-29T08:02:33;99699.78;;;-0.49;90.22
141;BME280;65;48.778;9.160;2023-01-29T08:04:58;99698.94;;;-0.42;90.08
141;BME280;65;48.778;9.160;2023-01-29T08:07:24;99697.19;;;-0.43;89.88
141;BME280;65;48.778;9.160;2023-01-29T08:09:49;99689.44;;;-0.34;88.75
141;BME280;65;48.778;9.160;2023-01-29T08:12:14;99692.06;;;-0.29;88.61
141;BME280;65;48.778;9.160;2023-01-29T08:14:40;99692.97;;;-0.19;88.02
141;BME280;65;48.778;9.160;2023-01-29T08:17:05;99697.28;;;-0.21;87.70
141;BME280;65;48.778;9.160;2023-01-29T08:19:31;99697.28;;;-0.20;88.74
141;BME280;65;48.778;9.160;2023-01-29T08:21:56;99695.56;;;-0.18;88.91
141;BME280;65;48.778;9.160;2023-01-29T08:24:21;99699.06;;;-0.14;90.35
141;BME280;65;48.778;9.160;2023-01-29T08:26:47;99706.88;;;-0.08;89.05
141;BME280;65;48.778;9.160;2023-01-29T08:29:12;99710.34;;;-0.08;88.57
141;BME280;65;48.778;9.160;2023-01-29T08:31:37;99712.06;;;-0.08;88.32
141;BME280;65;48.778;9.160;2023-01-29T08:34:03;99719.94;;;0.04;87.87
141;BME280;65;48.778;9.160;2023-01-29T08:36:28;99710.44;;;0.17;85.90
141;BME280;65;48.778;9.160;2023-01-29T08:38:54;99715.59;;;0.06;86.55
141;BME280;65;48.778;9.160;2023-01-29T08:41:19;99713.03;;;0.11;85.65
141;BME280;65;48.778;9.160;2023-01-29T08:43:44;99715.63;;;0.15;85.17
141;BME280;65;48.778;9.160;2023-01-29T08:46:10;99717.38;;;0.19;85.45
141;BME280;65;48.778;9.160;2023-01-29T08:48:36;99719.09;;;0.14;86.57
141;BME280;65;48.778;9.160;2023-01-29T08:51:03;99720.84;;;0.21;86.86
141;BME280;65;48.778;9.160;2023-01-29T08:53:30;99724.28;;;0.14;87.87
141;BME280;65;48.778;9.160;2023-01-29T08:55:55;99726.91;;;0.20;87.29
141;BME280;65;48.778;9.160;2023-01-29T08:58:21;99718.25;;;0.27;86.84
141;BME280;65;48.778;9.160;2023-01-29T09:00:46;99703.56;;;0.42;86.04
141;BME280;65;48.778;9.160;2023-01-29T09:03:12;99707.91;;;0.44;84.40
141;BME280;65;48.778;9.160;2023-01-29T09:05:38;99708.81;;;0.58;84.95
141;BME280;65;48.778;9.160;2023-01-29T09:08:05;99711.38;;;0.57;83.49
141;BME280;65;48.778;9.160;2023-01-29T09:10:38;99718.34;;;0.69;81.87
141;BME280;65;48.778;9.160;2023-01-29T09:13:03;99717.50;;;0.62;80.98
141;BME280;65;48.778;9.160;2023-01-29T09:15:29;99721.84;;;0.80;81.12
141;BME280;65;48.778;9.160;2023-01-29T09:17:55;99727.91;;;0.79;80.37
141;BME280;65;48.778;9.160;2023-01-29T09:20:20;99727.91;;;0.79;81.68
141;BME280;65;48.778;9.160;2023-01-29T09:22:46;99723.56;;;1.05;80.41
141;BME280;65;48.778;9.160;2023-01-29T09:25:12;99725.28;;;1.08;80.60
141;BME280;65;48.778;9.160;2023-01-29T09:27:37;99722.69;;;1.14;78.31
141;BME280;65;48.778;9.160;2023-01-29T09:30:22;99728.78;;;1.08;80.65
141;BME280;65;48.778;9.160;2023-01-29T09:32:47;99723.56;;;1.05;79.21
141;BME280;65;48.778;9.160;2023-01-29T09:35:12;99736.59;;;0.93;78.98
141;BME280;65;48.778;9.160;2023-01-29T09:37:38;99729.63;;;0.81;80.38
141;BME280;65;48.778;9.160;2023-01-29T09:40:04;99724.41;;;0.60;80.13
141;BME280;65;48.778;9.160;2023-01-29T09:42:40;99728.78;;;0.82;79.40
141;BME280;65;48.778;9.160;2023-01-29T09:45:14;99720.09;;;1.03;80.33
141;BME280;65;48.778;9.160;2023-01-29T09:47:41;99716.63;;;1.22;80.44
141;BME280;65;48.778;9.160;2023-01-29T09:50:25;99708.78;;;1.41;77.20
141;BME280;65;48.778;9.160;2023-01-29T09:52:58;99711.41;;;1.38;75.78
141;BME280;65;48.778;9.160;2023-01-29T09:55:31;99696.66;;;1.29;75.35
141;BME280;65;48.778;9.160;2023-01-29T09:58:38;99685.31;;;1.48;75.81
141;BME280;65;48.778;9.160;2023-01-29T10:06:02;99664.28;;;2.03;73.33
141;BME280;65;48.778;9.160;2023-01-29T10:20:02;99648.78;;;3.03;68.63
141;BME280;65;48.778;9.160;2023-01-29T10:23:06;99635.81;;;2.94;66.88
141;BME280;65;48.778;9.160;2023-01-29T10:25:39;99641.97;;;2.83;67.47
141;BME280;65;48.778;9.160;2023-01-29T10:28:17;99651.56;;;2.81;67.44
141;BME280;65;48.778;9.160;2023-01-29T10:30:49;99661.22;;;2.70;68.89
141;BME280;65;48.778;9.160;2023-01-29T10:33:25;99661.03;;;2.98;68.61
141;BME280;65;48.778;9.160;2023-01-29T10:35:57;99658.31;;;3.07;72.33
141;BME280;65;48.778;9.160;2023-01-29T10:38:30;99656.28;;;3.36;64.99
141;BME280;65;48.778;9.160;2023-01-29T10:52:15;99663.22;;;2.38;70.00
141;BME280;65;48.778;9.160;2023-01-29T10:58:05;99645.38;;;2.95;67.87
141;BME280;65;48.778;9.160;2023-01-29T11:00:58;99647.63;;;2.24;70.20
141;BME280;65;48.778;9.160;2023-01-29T11:03:31;99651.09;;;2.25;71.50
141;BME280;65;48.778;9.160;2023-01-29T11:08:42;99648.94;;;2.81;68.97
141;BME280;65;48.778;9.160;2023-01-29T11:11:17;99654.53;;;2.36;70.57
141;BME280;65;48.778;9.160;2023-01-29T11:13:54;99654.44;;;2.51;71.55
141;BME280;65;48.778;9.160;2023-01-29T11:16:21;99653.31;;;2.81;67.97
141;BME280;65;48.778;9.160;2023-01-29T11:21:20;99640.19;;;2.89;69.94
141;BME280;65;48.778;9.160;2023-01-29T11:23:46;99643.59;;;3.00;66.18
141;BME280;65;48.778;9.160;2023-01-29T11:26:13;99641.97;;;2.82;67.39
141;BME280;65;48.778;9.160;2023-01-29T11:28:46;99625.78;;;2.42;69.62
141;BME280;65;48.778;9.160;2023-01-29T11:31:26;99628.13;;;2.74;68.43
141;BME280;65;48.778;9.160;2023-01-29T11:34:22;99613.56;;;2.48;68.79
141;BME280;65;48.778;9.160;2023-01-29T11:37:04;99614.34;;;2.58;70.44
141;BME280;65;48.778;9.160;2023-01-29T11:39:42;99604.00;;;2.49;71.33
141;BME280;65;48.778;9.160;2023-01-29T11:42:18;99609.66;;;3.00;67.06
141;BME280;65;48.778;9.160;2023-01-29T11:44:44;99617.28;;;3.18;66.69
141;BME280;65;48.778;9.160;2023-01-29T11:49:51;99602.63;;;3.05;66.75
141;BME280;65;48.778;9.160;2023-01-29T11:52:19;99603.41;;;3.13;68.06
141;BME280;65;48.778;9.160;2023-01-29T11:54:53;99602.19;;;2.56;69.43
141;BME280;65;48.778;9.160;2023-01-29T11:57:31;99602.78;;;2.86;70.31
141;BME280;65;48.778;9.160;2023-01-29T12:00:04;99603.56;;;2.99;66.43
141;BME280;65;48.778;9.160;2023-01-29T12:02:37;99603.53;;;3.01;66.11
141;BME280;65;48.778;9.160;2023-01-29T12:05:13;99595.09;;;2.71;68.00
141;BME280;65;48.778;9.160;2023-01-29T12:07:41;99588.06;;;2.79;69.01
141;BME280;65;48.778;9.160;2023-01-29T12:10:35;99575.78;;;2.92;68.64
141;BME280;65;48.778;9.160;2023-01-29T12:15:36;99554.91;;;2.88;67.36
141;BME280;65;48.778;9.160;2023-01-29T12:20:50;99544.94;;;2.39;69.64
141;BME280;65;48.778;9.160;2023-01-29T12:26:09;99541.81;;;2.94;67.81
141;BME280;65;48.778;9.160;2023-01-29T12:39:13;99492.97;;;3.02;66.15
141;BME280;65;48.778;9.160;2023-01-29T12:41:45;99490.44;;;2.96;67.16
141;BME280;65;48.778;9.160;2023-01-29T12:44:35;99490.56;;;2.83;67.12
141;BME280;65;48.778;9.160;2023-01-29T12:49:52;99483.75;;;2.70;70.21
141;BME280;65;48.778;9.160;2023-01-29T12:55:00;99471.38;;;2.89;69.75
141;BME280;65;48.778;9.160;2023-01-29T13:00:08;99467.44;;;3.25;66.25
141;BME280;65;48.778;9.160;2023-01-29T13:05:30;99466.81;;;3.71;65.78
141;BME280;65;48.778;9.160;2023-01-29T13:08:21;99464.53;;;4.03;63.48
141;BME280;65;48.778;9.160;2023-01-29T13:10:50;99460.66;;;3.73;63.47
141;BME280;65;48.778;9.160;2023-01-29T13:13:26;99453.53;;;3.23;66.94
141;BME280;65;48.778;9.160;2023-01-29T13:15:55;99446.94;;;3.59;64.45
141;BME280;65;48.778;9.160;2023-01-29T13:18:45;99445.06;;;3.67;63.92
141;BME280;65;48.778;9.160;2023-01-29T13:21:36;99437.84;;;3.23;66.22
141;BME280;65;48.778;9.160;2023-01-29T13:26:33;99439.38;;;3.39;66.33
141;BME280;65;48.778;9.160;2023-01-29T13:28:59;99436.94;;;3.27;65.94
141;BME280;65;48.778;9.160;2023-01-29T13:31:36;99436.16;;;3.19;67.25
141;BME280;65;48.778;9.160;2023-01-29T13:34:30;99442.16;;;3.27;65.42
141;BME280;65;48.778;9.160;2023-01-29T13:36:59;99439.72;;;3.15;67.21
141;BME280;65;48.778;9.160;2023-01-29T13:39:33;99449.25;;;3.17;66.91
141;BME280;65;48.778;9.160;2023-01-29T13:42:02;99445.34;;;2.81;69.23
141;BME280;65;48.778;9.160;2023-01-29T13:44:39;99444.31;;;2.96;70.01
141;BME280;65;48.778;9.160;2023-01-29T13:49:44;99446.72;;;3.73;66.94
141;BME280;65;48.778;9.160;2023-01-29T13:52:31;99453.97;;;3.54;63.93
141;BME280;65;48.778;9.160;2023-01-29T13:55:04;99451.31;;;3.59;63.97
141;BME280;65;48.778;9.160;2023-01-29T14:03:32;99454.91;;;3.52;64.11
141;BME280;65;48.778;9.160;2023-01-29T14:13:47;99443.41;;;2.99;65.34
141;BME280;65;48.778;9.160;2023-01-29T14:18:55;99443.31;;;3.06;67.39
141;BME280;65;48.778;9.160;2023-01-29T14:21:26;99442.38;;;3.10;67.00
141;BME280;65;48.778;9.160;2023-01-29T14:24:07;99453.44;;;2.59;68.39
141;BME280;65;48.778;9.160;2023-01-29T14:26:41;99448.19;;;2.60;69.16
141;BME280;65;48.778;9.160;2023-01-29T14:31:52;99442.72;;;2.81;70.89
141;BME280;65;48.778;9.160;2023-01-29T14:39:54;99433.84;;;2.98;67.59
141;BME280;65;48.778;9.160;2023-01-29T14:47:51;99441.28;;;2.56;69.67
141;BME280;65;48.778;9.160;2023-01-29T14:56:31;99443.28;;;2.33;70.68
141;BME280;65;48.778;9.160;2023-01-29T14:58:42;99437.19;;;2.29;71.77
141;BME280;65;48.778;9.160;2023-01-29T15:01:28;99437.28;;;2.21;70.51
141;BME280;65;48.778;9.160;2023-01-29T15:09:15;99427.63;;;2.30;71.32
141;BME280;65;48.778;9.160;2023-01-29T15:18:00;99456.28;;;2.37;71.05
141;BME280;65;48.778;9.160;2023-01-29T15:20:33;99451.53;;;2.71;69.88
141;BME280;65;48.778;9.160;2023-01-29T15:23:00;99435.59;;;2.97;68.57
141;BME280;65;48.778;9.160;2023-01-29T15:25:30;99433.94;;;2.92;67.82
141;BME280;65;48.778;9.160;2023-01-29T15:27:58;99437.84;;;2.51;69.76
141;BME280;65;48.778;9.160;2023-01-29T15:30:31;99442.44;;;2.28;71.49
141;BME280;65;48.778;9.160;2023-01-29T15:32:57;99439.88;;;2.20;71.56
141;BME280;65;48.778;9.160;2023-01-29T15:40:30;99432.44;;;1.79;73.64
141;BME280;65;48.778;9.160;2023-01-29T15:42:55;99439.50;;;1.62;74.78
141;BME280;65;48.778;9.160;2023-01-29T15:47:48;99430.94;;;1.44;76.79
141;BME280;65;48.778;9.160;2023-01-29T15:50:13;99441.38;;;1.41;77.10
141;BME280;65;48.778;9.160;2023-01-29T15:52:50;99437.16;;;1.22;78.63
141;BME280;65;48.778;9.160;2023-01-29T15:55:36;99441.53;;;1.17;77.95
141;BME280;65;48.778;9.160;2023-01-29T15:58:01;99446.72;;;1.21;79.15
141;BME280;65;48.778;9.160;2023-01-29T16:00:27;99443.31;;;1.06;79.30
141;BME280;65;48.778;9.160;2023-01-29T16:02:55;99440.75;;;0.93;79.96
141;BME280;65;48.778;9.160;2023-01-29T16:05:27;99442.53;;;0.84;80.84
141;BME280;65;48.778;9.160;2023-01-29T16:07:56;99439.09;;;0.79;81.01
141;BME280;65;48.778;9.160;2023-01-29T16:10:25;99436.53;;;0.68;81.42
141;BME280;65;48.778;9.160;2023-01-29T16:12:53;99433.94;;;0.56;82.01
141;BME280;65;48.778;9.160;2023-01-29T16:15:26;99433.94;;;0.54;82.97
141;BME280;65;48.778;9.160;2023-01-29T16:17:53;99431.41;;;0.39;83.76
141;BME280;65;48.778;9.160;2023-01-29T16:20:29;99428.81;;;0.28;84.81
141;BME280;65;48.778;9.160;2023-01-29T16:22:55;99427.97;;;0.17;85.62
141;BME280;65;48.778;9.160;2023-01-29T16:25:22;99417.59;;;0.17;85.85
141;BME280;65;48.778;9.160;2023-01-29T16:27:47;99420.19;;;0.10;86.38
141;BME280;65;48.778;9.160;2023-01-29T16:30:15;99434.94;;;0.00;86.58
141;BME280;65;48.778;9.160;2023-01-29T16:32:41;99429.72;;;-0.15;87.49
141;BME280;65;48.778;9.160;2023-01-29T16:35:13;99428.00;;;-0.25;89.05
141;BME280;65;48.778;9.160;2023-01-29T16:37:39;99436.66;;;-0.33;89.06
141;BME280;65;48.778;9.160;2023-01-29T16:40:25;99438.38;;;-0.35;91.21
141;BME280;65;48.778;9.160;2023-01-29T16:43:40;99436.66;;;-0.39;90.71
141;BME280;65;48.778;9.160;2023-01-29T16:46:17;99445.31;;;-0.40;91.31
141;BME280;65;48.778;9.160;2023-01-29T16:48:43;99443.59;;;-0.45;92.28
141;BME280;65;48.778;9.160;2023-01-29T16:51:16;99448.78;;;-0.38;92.34
141;BME280;65;48.778;9.160;2023-01-29T16:56:21;99441.84;;;-0.54;93.20
141;BME280;65;48.778;9.160;2023-01-29T16:58:50;99459.97;;;-0.66;93.88
141;BME280;65;48.778;9.160;2023-01-29T17:01:17;99452.16;;;-0.78;94.67
141;BME280;65;48.778;9.160;2023-01-29T17:03:42;99464.25;;;-0.82;95.28
141;BME280;65;48.778;9.160;2023-01-29T17:06:12;99456.47;;;-0.88;95.34
141;BME280;65;48.778;9.160;2023-01-29T17:08:42;99462.50;;;-0.97;96.23
141;BME280;65;48.778;9.160;2023-01-29T17:11:08;99460.72;;;-1.05;96.31
141;BME280;65;48.778;9.160;2023-01-29T17:16:12;99460.78;;;-0.81;97.00
141;BME280;65;48.778;9.160;2023-01-29T17:18:38;99461.72;;;-0.59;95.58
141;BME280;65;48.778;9.160;2023-01-29T17:21:04;99461.75;;;-0.53;95.05
141;BME280;65;48.778;9.160;2023-01-29T17:23:29;99464.34;;;-0.47;94.27
141;BME280;65;48.778;9.160;2023-01-29T17:25:55;99463.47;;;-0.50;94.64
141;BME280;65;48.778;9.160;2023-01-29T17:28:20;99460.84;;;-0.59;94.95